Terminal Aerodrome Forecast
Issued by NWS

Home | Current Version | Previous Version | Text Only | Print | Product List | Glossary On
Versions: 1 2 3 4 5 6 7 8 9 10 11 12 13 14 15 16 17 18 19 20 21 22 23 24 25 26 27 28 29 30 31 32 33 34 35 36
000
FTPA31 PHFO 250400 AAD
TAFJHM
TAF AMD
PHJH 250414Z 2504/2524 01012G25KT 3SM -RA BR SCT007 BKN015 OVC035
      TEMPO 2504/2506 1SM -RA BR BKN005 OVC025
     FM251000 02012KT P6SM VCSH FEW012 BKN030 OVC050
     FM251600 03015G23KT P6SM VCSH FEW015 SCT025 BKN045
      AMD NOT SKED=

USA.gov is the U.S. government's official web portal to all federal, state and local government web resources and services.